sensor_id;sensor_type;location;lat;lon;timestamp;P1;durP1;ratioP1;P2;durP2;ratioP2
71490;SDS011;59307;50.060;9.150;2022-07-10T00:02:09;16.63;;;11.10;;
71490;SDS011;59307;50.060;9.150;2022-07-10T00:04:34;14.83;;;10.50;;
71490;SDS011;59307;50.060;9.150;2022-07-10T00:06:59;14.10;;;9.97;;
71490;SDS011;59307;50.060;9.150;2022-07-10T00:09:27;16.65;;;10.05;;
71490;SDS011;59307;50.060;9.150;2022-07-10T00:11:53;12.87;;;9.13;;
71490;SDS011;59307;50.060;9.150;2022-07-10T00:14:18;14.33;;;9.20;;
71490;SDS011;59307;50.060;9.150;2022-07-10T00:16:43;14.60;;;8.10;;
71490;SDS011;59307;50.060;9.150;2022-07-10T00:19:08;14.37;;;8.47;;
71490;SDS011;59307;50.060;9.150;2022-07-10T00:21:34;11.60;;;7.70;;
71490;SDS011;59307;50.060;9.150;2022-07-10T00:23:59;13.93;;;7.63;;
71490;SDS011;59307;50.060;9.150;2022-07-10T00:26:24;13.30;;;7.30;;
71490;SDS011;59307;50.060;9.150;2022-07-10T00:28:49;13.20;;;7.60;;
71490;SDS011;59307;50.060;9.150;2022-07-10T00:31:14;10.93;;;6.80;;
71490;SDS011;59307;50.060;9.150;2022-07-10T00:33:39;10.67;;;7.60;;
71490;SDS011;59307;50.060;9.150;2022-07-10T00:36:05;11.30;;;7.55;;
71490;SDS011;59307;50.060;9.150;2022-07-10T00:38:30;22.03;;;8.37;;
71490;SDS011;59307;50.060;9.150;2022-07-10T00:40:55;12.07;;;7.47;;
71490;SDS011;59307;50.060;9.150;2022-07-10T00:43:21;13.00;;;7.40;;
71490;SDS011;59307;50.060;9.150;2022-07-10T00:45:46;10.87;;;7.60;;
71490;SDS011;59307;50.060;9.150;2022-07-10T00:48:11;10.97;;;7.53;;
71490;SDS011;59307;50.060;9.150;2022-07-10T00:50:36;10.97;;;6.90;;
71490;SDS011;59307;50.060;9.150;2022-07-10T00:53:01;10.27;;;6.67;;
71490;SDS011;59307;50.060;9.150;2022-07-10T00:55:30;13.60;;;7.28;;
71490;SDS011;59307;50.060;9.150;2022-07-10T00:57:55;12.82;;;6.40;;
71490;SDS011;59307;50.060;9.150;2022-07-10T01:00:21;9.30;;;6.07;;
71490;SDS011;59307;50.060;9.150;2022-07-10T01:02:46;10.60;;;6.07;;
71490;SDS011;59307;50.060;9.150;2022-07-10T01:05:12;14.70;;;6.67;;
71490;SDS011;59307;50.060;9.150;2022-07-10T01:07:37;10.93;;;6.30;;
71490;SDS011;59307;50.060;9.150;2022-07-10T01:10:02;11.33;;;6.17;;
71490;SDS011;59307;50.060;9.150;2022-07-10T01:12:28;13.37;;;6.63;;
71490;SDS011;59307;50.060;9.150;2022-07-10T01:14:53;10.83;;;6.20;;
71490;SDS011;59307;50.060;9.150;2022-07-10T01:17:18;8.07;;;5.93;;
71490;SDS011;59307;50.060;9.150;2022-07-10T01:19:44;10.13;;;5.43;;
71490;SDS011;59307;50.060;9.150;2022-07-10T01:22:09;10.43;;;5.53;;
71490;SDS011;59307;50.060;9.150;2022-07-10T01:24:34;11.87;;;5.33;;
71490;SDS011;59307;50.060;9.150;2022-07-10T01:26:59;10.10;;;4.73;;
71490;SDS011;59307;50.060;9.150;2022-07-10T01:29:25;11.67;;;5.20;;
71490;SDS011;59307;50.060;9.150;2022-07-10T01:31:50;11.00;;;4.83;;
71490;SDS011;59307;50.060;9.150;2022-07-10T01:34:15;9.67;;;4.50;;
71490;SDS011;59307;50.060;9.150;2022-07-10T01:36:41;7.23;;;4.30;;
71490;SDS011;59307;50.060;9.150;2022-07-10T01:39:06;6.27;;;4.10;;
71490;SDS011;59307;50.060;9.150;2022-07-10T01:41:32;9.00;;;3.80;;
71490;SDS011;59307;50.060;9.150;2022-07-10T01:43:57;7.07;;;3.73;;
71490;SDS011;59307;50.060;9.150;2022-07-10T01:46:22;7.80;;;4.13;;
71490;SDS011;59307;50.060;9.150;2022-07-10T01:48:47;9.03;;;4.00;;
71490;SDS011;59307;50.060;9.150;2022-07-10T01:51:13;9.97;;;4.07;;
71490;SDS011;59307;50.060;9.150;2022-07-10T01:53:38;8.73;;;4.07;;
71490;SDS011;59307;50.060;9.150;2022-07-10T01:56:05;6.10;;;3.83;;
71490;SDS011;59307;50.060;9.150;2022-07-10T01:58:30;12.80;;;4.40;;
71490;SDS011;59307;50.060;9.150;2022-07-10T02:00:55;8.57;;;3.80;;
71490;SDS011;59307;50.060;9.150;2022-07-10T02:03:20;8.53;;;4.27;;
71490;SDS011;59307;50.060;9.150;2022-07-10T02:06:04;9.40;;;4.70;;
71490;SDS011;59307;50.060;9.150;2022-07-10T02:08:29;9.27;;;4.70;;
71490;SDS011;59307;50.060;9.150;2022-07-10T02:10:55;9.67;;;4.40;;
71490;SDS011;59307;50.060;9.150;2022-07-10T02:13:20;9.07;;;4.33;;
71490;SDS011;59307;50.060;9.150;2022-07-10T02:15:46;10.97;;;4.63;;
71490;SDS011;59307;50.060;9.150;2022-07-10T02:18:11;12.73;;;5.38;;
71490;SDS011;59307;50.060;9.150;2022-07-10T02:20:36;10.23;;;4.83;;
71490;SDS011;59307;50.060;9.150;2022-07-10T02:23:01;8.53;;;4.77;;
71490;SDS011;59307;50.060;9.150;2022-07-10T02:25:27;9.53;;;5.03;;
71490;SDS011;59307;50.060;9.150;2022-07-10T02:27:52;7.80;;;4.90;;
71490;SDS011;59307;50.060;9.150;2022-07-10T02:30:17;8.97;;;4.83;;
71490;SDS011;59307;50.060;9.150;2022-07-10T02:32:42;9.43;;;4.93;;
71490;SDS011;59307;50.060;9.150;2022-07-10T02:35:07;11.43;;;4.20;;
71490;SDS011;59307;50.060;9.150;2022-07-10T02:37:33;8.38;;;3.50;;
71490;SDS011;59307;50.060;9.150;2022-07-10T02:39:58;9.93;;;4.07;;
71490;SDS011;59307;50.060;9.150;2022-07-10T02:42:23;5.93;;;3.30;;
71490;SDS011;59307;50.060;9.150;2022-07-10T02:44:48;5.77;;;3.60;;
71490;SDS011;59307;50.060;9.150;2022-07-10T02:47:14;8.40;;;4.00;;
71490;SDS011;59307;50.060;9.150;2022-07-10T02:49:39;9.27;;;4.00;;
71490;SDS011;59307;50.060;9.150;2022-07-10T02:52:04;9.67;;;4.07;;
71490;SDS011;59307;50.060;9.150;2022-07-10T02:54:30;7.87;;;3.30;;
71490;SDS011;59307;50.060;9.150;2022-07-10T02:56:55;7.33;;;3.67;;
71490;SDS011;59307;50.060;9.150;2022-07-10T02:59:20;9.13;;;3.60;;
71490;SDS011;59307;50.060;9.150;2022-07-10T03:01:45;11.20;;;3.53;;
71490;SDS011;59307;50.060;9.150;2022-07-10T03:04:11;5.97;;;3.20;;
71490;SDS011;59307;50.060;9.150;2022-07-10T03:06:36;6.47;;;3.40;;
71490;SDS011;59307;50.060;9.150;2022-07-10T03:09:01;6.43;;;3.28;;
71490;SDS011;59307;50.060;9.150;2022-07-10T03:11:27;8.30;;;3.60;;
71490;SDS011;59307;50.060;9.150;2022-07-10T03:13:52;6.57;;;3.13;;
71490;SDS011;59307;50.060;9.150;2022-07-10T03:16:17;6.13;;;3.27;;
71490;SDS011;59307;50.060;9.150;2022-07-10T03:18:42;7.87;;;3.30;;
71490;SDS011;59307;50.060;9.150;2022-07-10T03:21:07;7.83;;;3.80;;
71490;SDS011;59307;50.060;9.150;2022-07-10T03:23:33;10.33;;;4.03;;
71490;SDS011;59307;50.060;9.150;2022-07-10T03:25:58;9.90;;;3.63;;
71490;SDS011;59307;50.060;9.150;2022-07-10T03:28:23;13.33;;;3.70;;
71490;SDS011;59307;50.060;9.150;2022-07-10T03:30:48;8.85;;;3.70;;
71490;SDS011;59307;50.060;9.150;2022-07-10T03:33:14;7.70;;;3.43;;
71490;SDS011;59307;50.060;9.150;2022-07-10T03:35:39;5.30;;;3.10;;
71490;SDS011;59307;50.060;9.150;2022-07-10T03:38:04;7.50;;;3.47;;
71490;SDS011;59307;50.060;9.150;2022-07-10T03:40:29;7.90;;;3.30;;
71490;SDS011;59307;50.060;9.150;2022-07-10T03:42:54;9.77;;;3.80;;
71490;SDS011;59307;50.060;9.150;2022-07-10T03:45:19;9.90;;;3.60;;
71490;SDS011;59307;50.060;9.150;2022-07-10T03:47:45;8.37;;;2.93;;
71490;SDS011;59307;50.060;9.150;2022-07-10T03:50:10;8.13;;;3.07;;
71490;SDS011;59307;50.060;9.150;2022-07-10T03:52:35;8.83;;;3.47;;
71490;SDS011;59307;50.060;9.150;2022-07-10T03:55:00;8.13;;;3.13;;
71490;SDS011;59307;50.060;9.150;2022-07-10T03:57:26;5.90;;;3.23;;
71490;SDS011;59307;50.060;9.150;2022-07-10T04:00:10;10.60;;;3.97;;
71490;SDS011;59307;50.060;9.150;2022-07-10T04:02:36;9.25;;;3.20;;
71490;SDS011;59307;50.060;9.150;2022-07-10T04:05:01;10.63;;;2.97;;
71490;SDS011;59307;50.060;9.150;2022-07-10T04:07:26;8.60;;;3.07;;
71490;SDS011;59307;50.060;9.150;2022-07-10T04:09:51;6.83;;;2.83;;
71490;SDS011;59307;50.060;9.150;2022-07-10T04:12:16;5.90;;;2.60;;
71490;SDS011;59307;50.060;9.150;2022-07-10T04:14:42;6.57;;;2.60;;
71490;SDS011;59307;50.060;9.150;2022-07-10T04:17:07;7.13;;;3.03;;
71490;SDS011;59307;50.060;9.150;2022-07-10T04:19:33;7.60;;;3.97;;
71490;SDS011;59307;50.060;9.150;2022-07-10T04:21:58;6.30;;;3.67;;
71490;SDS011;59307;50.060;9.150;2022-07-10T04:24:24;9.00;;;3.40;;
71490;SDS011;59307;50.060;9.150;2022-07-10T04:26:49;7.43;;;3.30;;
71490;SDS011;59307;50.060;9.150;2022-07-10T04:29:14;8.90;;;2.90;;
71490;SDS011;59307;50.060;9.150;2022-07-10T04:31:39;6.93;;;2.80;;
71490;SDS011;59307;50.060;9.150;2022-07-10T04:34:04;8.23;;;3.00;;
71490;SDS011;59307;50.060;9.150;2022-07-10T04:36:29;6.27;;;2.80;;
71490;SDS011;59307;50.060;9.150;2022-07-10T04:38:55;9.20;;;3.17;;
71490;SDS011;59307;50.060;9.150;2022-07-10T04:41:20;6.10;;;2.57;;
71490;SDS011;59307;50.060;9.150;2022-07-10T04:43:45;6.00;;;2.30;;
71490;SDS011;59307;50.060;9.150;2022-07-10T04:46:11;3.93;;;1.97;;
71490;SDS011;59307;50.060;9.150;2022-07-10T04:48:36;3.37;;;1.90;;
71490;SDS011;59307;50.060;9.150;2022-07-10T04:51:01;5.67;;;2.07;;
71490;SDS011;59307;50.060;9.150;2022-07-10T04:53:26;11.13;;;2.50;;
71490;SDS011;59307;50.060;9.150;2022-07-10T04:55:52;4.17;;;1.80;;
71490;SDS011;59307;50.060;9.150;2022-07-10T04:58:17;5.70;;;2.07;;
71490;SDS011;59307;50.060;9.150;2022-07-10T05:00:42;8.37;;;2.23;;
71490;SDS011;59307;50.060;9.150;2022-07-10T05:03:07;4.90;;;2.20;;
71490;SDS011;59307;50.060;9.150;2022-07-10T05:05:32;5.30;;;1.70;;
71490;SDS011;59307;50.060;9.150;2022-07-10T05:07:57;5.90;;;1.90;;
71490;SDS011;59307;50.060;9.150;2022-07-10T05:10:23;8.02;;;1.90;;
71490;SDS011;59307;50.060;9.150;2022-07-10T05:12:49;4.40;;;1.57;;
71490;SDS011;59307;50.060;9.150;2022-07-10T05:15:14;6.13;;;1.50;;
71490;SDS011;59307;50.060;9.150;2022-07-10T05:17:39;6.53;;;1.83;;
71490;SDS011;59307;50.060;9.150;2022-07-10T05:20:04;3.30;;;1.50;;
71490;SDS011;59307;50.060;9.150;2022-07-10T05:22:30;3.50;;;1.40;;
71490;SDS011;59307;50.060;9.150;2022-07-10T05:24:58;8.93;;;1.55;;
71490;SDS011;59307;50.060;9.150;2022-07-10T05:27:23;6.43;;;1.50;;
71490;SDS011;59307;50.060;9.150;2022-07-10T05:29:49;6.45;;;1.40;;
71490;SDS011;59307;50.060;9.150;2022-07-10T05:32:14;6.33;;;1.40;;
71490;SDS011;59307;50.060;9.150;2022-07-10T05:34:39;4.87;;;1.77;;
71490;SDS011;59307;50.060;9.150;2022-07-10T05:37:05;5.15;;;1.63;;
71490;SDS011;59307;50.060;9.150;2022-07-10T05:39:32;6.60;;;1.60;;
71490;SDS011;59307;50.060;9.150;2022-07-10T05:41:57;4.67;;;1.50;;
71490;SDS011;59307;50.060;9.150;2022-07-10T05:44:22;6.97;;;2.33;;
71490;SDS011;59307;50.060;9.150;2022-07-10T05:46:48;4.37;;;1.57;;
71490;SDS011;59307;50.060;9.150;2022-07-10T05:49:13;6.90;;;1.70;;
71490;SDS011;59307;50.060;9.150;2022-07-10T05:51:38;6.93;;;1.67;;
71490;SDS011;59307;50.060;9.150;2022-07-10T05:54:03;2.20;;;1.33;;
71490;SDS011;59307;50.060;9.150;2022-07-10T05:56:29;6.03;;;1.50;;
71490;SDS011;59307;50.060;9.150;2022-07-10T05:58:54;4.53;;;1.57;;
71490;SDS011;59307;50.060;9.150;2022-07-10T06:01:20;4.50;;;1.60;;
71490;SDS011;59307;50.060;9.150;2022-07-10T06:03:45;5.87;;;1.73;;
71490;SDS011;59307;50.060;9.150;2022-07-10T06:06:11;6.07;;;1.50;;
71490;SDS011;59307;50.060;9.150;2022-07-10T06:08:40;9.52;;;2.40;;
71490;SDS011;59307;50.060;9.150;2022-07-10T06:11:05;5.77;;;1.50;;
71490;SDS011;59307;50.060;9.150;2022-07-10T06:13:30;5.97;;;1.30;;
71490;SDS011;59307;50.060;9.150;2022-07-10T06:15:55;4.40;;;1.30;;
71490;SDS011;59307;50.060;9.150;2022-07-10T06:18:20;3.87;;;1.07;;
71490;SDS011;59307;50.060;9.150;2022-07-10T06:20:45;4.53;;;1.17;;
71490;SDS011;59307;50.060;9.150;2022-07-10T06:23:11;2.73;;;1.10;;
71490;SDS011;59307;50.060;9.150;2022-07-10T06:25:36;3.73;;;1.20;;
71490;SDS011;59307;50.060;9.150;2022-07-10T06:28:01;4.50;;;1.13;;
71490;SDS011;59307;50.060;9.150;2022-07-10T06:30:26;4.50;;;1.20;;
71490;SDS011;59307;50.060;9.150;2022-07-10T06:32:51;3.27;;;1.10;;
71490;SDS011;59307;50.060;9.150;2022-07-10T06:35:17;5.60;;;1.20;;
71490;SDS011;59307;50.060;9.150;2022-07-10T06:37:42;2.13;;;0.97;;
71490;SDS011;59307;50.060;9.150;2022-07-10T06:40:09;4.43;;;1.20;;
71490;SDS011;59307;50.060;9.150;2022-07-10T06:42:34;3.60;;;0.93;;
71490;SDS011;59307;50.060;9.150;2022-07-10T06:44:59;2.93;;;1.10;;
71490;SDS011;59307;50.060;9.150;2022-07-10T06:47:25;5.87;;;1.30;;
71490;SDS011;59307;50.060;9.150;2022-07-10T06:50:09;2.95;;;0.95;;
71490;SDS011;59307;50.060;9.150;2022-07-10T06:52:35;3.63;;;0.77;;
71490;SDS011;59307;50.060;9.150;2022-07-10T06:55:00;6.73;;;1.20;;
71490;SDS011;59307;50.060;9.150;2022-07-10T06:57:26;5.03;;;0.95;;
71490;SDS011;59307;50.060;9.150;2022-07-10T06:59:51;3.70;;;0.83;;
71490;SDS011;59307;50.060;9.150;2022-07-10T07:02:17;3.45;;;0.90;;
71490;SDS011;59307;50.060;9.150;2022-07-10T07:04:43;3.80;;;0.87;;
71490;SDS011;59307;50.060;9.150;2022-07-10T07:07:09;3.63;;;0.60;;
71490;SDS011;59307;50.060;9.150;2022-07-10T07:09:35;2.37;;;0.80;;
71490;SDS011;59307;50.060;9.150;2022-07-10T07:12:00;4.07;;;0.90;;
71490;SDS011;59307;50.060;9.150;2022-07-10T07:14:25;4.23;;;1.00;;
71490;SDS011;59307;50.060;9.150;2022-07-10T07:16:50;3.13;;;0.90;;
71490;SDS011;59307;50.060;9.150;2022-07-10T07:19:45;4.15;;;0.82;;
71490;SDS011;59307;50.060;9.150;2022-07-10T07:22:28;3.17;;;0.75;;
71490;SDS011;59307;50.060;9.150;2022-07-10T07:25:12;3.92;;;1.00;;
71490;SDS011;59307;50.060;9.150;2022-07-10T07:27:37;2.70;;;0.83;;
71490;SDS011;59307;50.060;9.150;2022-07-10T07:30:04;2.93;;;0.67;;
71490;SDS011;59307;50.060;9.150;2022-07-10T07:32:29;1.85;;;0.70;;
71490;SDS011;59307;50.060;9.150;2022-07-10T07:34:55;5.43;;;1.20;;
71490;SDS011;59307;50.060;9.150;2022-07-10T07:37:20;3.20;;;1.13;;
71490;SDS011;59307;50.060;9.150;2022-07-10T07:39:45;9.43;;;1.17;;
71490;SDS011;59307;50.060;9.150;2022-07-10T07:42:10;1.30;;;0.70;;
71490;SDS011;59307;50.060;9.150;2022-07-10T07:44:35;3.67;;;0.90;;
71490;SDS011;59307;50.060;9.150;2022-07-10T07:47:01;3.43;;;0.90;;
71490;SDS011;59307;50.060;9.150;2022-07-10T07:49:26;5.50;;;0.90;;
71490;SDS011;59307;50.060;9.150;2022-07-10T07:51:51;3.90;;;0.80;;
71490;SDS011;59307;50.060;9.150;2022-07-10T07:54:16;4.37;;;0.83;;
71490;SDS011;59307;50.060;9.150;2022-07-10T07:56:41;3.60;;;0.80;;
71490;SDS011;59307;50.060;9.150;2022-07-10T07:59:06;3.87;;;1.00;;
71490;SDS011;59307;50.060;9.150;2022-07-10T08:01:32;3.20;;;0.87;;
71490;SDS011;59307;50.060;9.150;2022-07-10T08:03:57;1.83;;;0.80;;
71490;SDS011;59307;50.060;9.150;2022-07-10T08:06:22;3.47;;;0.80;;
71490;SDS011;59307;50.060;9.150;2022-07-10T08:08:47;2.73;;;0.73;;
71490;SDS011;59307;50.060;9.150;2022-07-10T08:11:12;2.20;;;0.67;;
71490;SDS011;59307;50.060;9.150;2022-07-10T08:13:38;2.77;;;0.77;;
71490;SDS011;59307;50.060;9.150;2022-07-10T08:16:03;3.70;;;0.93;;
71490;SDS011;59307;50.060;9.150;2022-07-10T08:18:28;3.83;;;1.10;;
71490;SDS011;59307;50.060;9.150;2022-07-10T08:20:53;4.70;;;1.03;;
71490;SDS011;59307;50.060;9.150;2022-07-10T08:23:18;2.67;;;0.80;;
71490;SDS011;59307;50.060;9.150;2022-07-10T08:25:44;6.93;;;1.00;;
71490;SDS011;59307;50.060;9.150;2022-07-10T08:28:09;3.37;;;1.00;;
71490;SDS011;59307;50.060;9.150;2022-07-10T08:30:36;3.00;;;1.00;;
71490;SDS011;59307;50.060;9.150;2022-07-10T08:33:02;4.33;;;1.00;;
71490;SDS011;59307;50.060;9.150;2022-07-10T08:35:27;4.03;;;0.70;;
71490;SDS011;59307;50.060;9.150;2022-07-10T08:37:52;3.50;;;0.90;;
71490;SDS011;59307;50.060;9.150;2022-07-10T08:40:19;4.47;;;0.87;;
71490;SDS011;59307;50.060;9.150;2022-07-10T08:42:46;4.72;;;0.70;;
71490;SDS011;59307;50.060;9.150;2022-07-10T08:45:11;3.93;;;0.80;;
71490;SDS011;59307;50.060;9.150;2022-07-10T08:47:37;2.55;;;0.80;;
71490;SDS011;59307;50.060;9.150;2022-07-10T08:50:03;1.90;;;0.70;;
71490;SDS011;59307;50.060;9.150;2022-07-10T08:52:43;3.38;;;1.00;;
71490;SDS011;59307;50.060;9.150;2022-07-10T08:55:11;2.50;;;0.70;;
71490;SDS011;59307;50.060;9.150;2022-07-10T08:57:37;4.45;;;0.82;;
71490;SDS011;59307;50.060;9.150;2022-07-10T09:00:04;1.20;;;0.50;;
71490;SDS011;59307;50.060;9.150;2022-07-10T09:02:30;2.80;;;0.90;;
71490;SDS011;59307;50.060;9.150;2022-07-10T09:04:55;4.10;;;0.67;;
71490;SDS011;59307;50.060;9.150;2022-07-10T09:07:20;1.87;;;0.80;;
71490;SDS011;59307;50.060;9.150;2022-07-10T09:09:55;2.93;;;0.80;;
71490;SDS011;59307;50.060;9.150;2022-07-10T09:12:21;2.70;;;0.80;;
71490;SDS011;59307;50.060;9.150;2022-07-10T09:14:46;1.93;;;0.60;;
71490;SDS011;59307;50.060;9.150;2022-07-10T09:17:12;4.85;;;1.00;;
71490;SDS011;59307;50.060;9.150;2022-07-10T09:19:37;2.20;;;0.77;;
71490;SDS011;59307;50.060;9.150;2022-07-10T09:22:07;3.63;;;1.10;;
71490;SDS011;59307;50.060;9.150;2022-07-10T09:27:01;4.40;;;0.90;;
71490;SDS011;59307;50.060;9.150;2022-07-10T09:29:28;4.13;;;0.93;;
71490;SDS011;59307;50.060;9.150;2022-07-10T09:32:00;2.10;;;0.80;;
71490;SDS011;59307;50.060;9.150;2022-07-10T09:34:45;3.00;;;0.82;;
71490;SDS011;59307;50.060;9.150;2022-07-10T09:39:51;2.63;;;0.70;;
71490;SDS011;59307;50.060;9.150;2022-07-10T09:42:30;3.70;;;0.93;;
71490;SDS011;59307;50.060;9.150;2022-07-10T09:50:20;5.03;;;0.90;;
71490;SDS011;59307;50.060;9.150;2022-07-10T09:52:53;3.03;;;0.70;;
71490;SDS011;59307;50.060;9.150;2022-07-10T09:55:19;2.63;;;0.73;;
71490;SDS011;59307;50.060;9.150;2022-07-10T09:57:45;5.60;;;1.00;;
71490;SDS011;59307;50.060;9.150;2022-07-10T10:00:11;6.65;;;1.10;;
71490;SDS011;59307;50.060;9.150;2022-07-10T10:02:37;3.83;;;0.97;;
71490;SDS011;59307;50.060;9.150;2022-07-10T10:05:03;3.63;;;1.05;;
71490;SDS011;59307;50.060;9.150;2022-07-10T10:07:29;4.80;;;1.03;;
71490;SDS011;59307;50.060;9.150;2022-07-10T10:09:54;2.85;;;0.80;;
71490;SDS011;59307;50.060;9.150;2022-07-10T10:12:31;4.70;;;1.17;;
71490;SDS011;59307;50.060;9.150;2022-07-10T10:14:57;4.60;;;0.90;;
71490;SDS011;59307;50.060;9.150;2022-07-10T10:17:23;5.25;;;0.90;;
71490;SDS011;59307;50.060;9.150;2022-07-10T10:19:49;2.87;;;0.70;;
71490;SDS011;59307;50.060;9.150;2022-07-10T10:22:34;3.60;;;0.88;;
71490;SDS011;59307;50.060;9.150;2022-07-10T10:24:59;1.75;;;0.90;;
71490;SDS011;59307;50.060;9.150;2022-07-10T10:27:26;5.68;;;0.90;;
71490;SDS011;59307;50.060;9.150;2022-07-10T10:29:51;1.87;;;0.70;;
71490;SDS011;59307;50.060;9.150;2022-07-10T10:32:17;3.67;;;0.93;;
71490;SDS011;59307;50.060;9.150;2022-07-10T10:34:43;4.95;;;1.00;;
71490;SDS011;59307;50.060;9.150;2022-07-10T10:39:55;3.92;;;1.02;;
71490;SDS011;59307;50.060;9.150;2022-07-10T10:48:01;1.75;;;0.80;;
71490;SDS011;59307;50.060;9.150;2022-07-10T10:50:42;2.33;;;0.90;;
71490;SDS011;59307;50.060;9.150;2022-07-10T10:55:39;2.97;;;1.10;;
71490;SDS011;59307;50.060;9.150;2022-07-10T10:58:15;5.60;;;1.40;;
71490;SDS011;59307;50.060;9.150;2022-07-10T11:00:40;4.32;;;1.20;;
71490;SDS011;59307;50.060;9.150;2022-07-10T11:03:18;2.63;;;0.80;;
71490;SDS011;59307;50.060;9.150;2022-07-10T11:05:44;6.63;;;1.40;;
71490;SDS011;59307;50.060;9.150;2022-07-10T11:08:10;6.10;;;1.33;;
71490;SDS011;59307;50.060;9.150;2022-07-10T11:10:39;7.13;;;1.33;;
71490;SDS011;59307;50.060;9.150;2022-07-10T11:15:34;3.53;;;1.20;;
71490;SDS011;59307;50.060;9.150;2022-07-10T11:20:27;5.63;;;1.30;;
71490;SDS011;59307;50.060;9.150;2022-07-10T11:25:32;4.50;;;1.20;;
71490;SDS011;59307;50.060;9.150;2022-07-10T11:28:06;1.77;;;1.10;;
71490;SDS011;59307;50.060;9.150;2022-07-10T11:30:45;5.18;;;1.17;;
71490;SDS011;59307;50.060;9.150;2022-07-10T11:33:10;4.53;;;1.20;;
71490;SDS011;59307;50.060;9.150;2022-07-10T11:35:37;5.90;;;1.55;;
71490;SDS011;59307;50.060;9.150;2022-07-10T11:38:02;4.05;;;1.20;;
71490;SDS011;59307;50.060;9.150;2022-07-10T11:40:28;5.30;;;1.20;;
71490;SDS011;59307;50.060;9.150;2022-07-10T11:42:54;8.43;;;1.30;;
71490;SDS011;59307;50.060;9.150;2022-07-10T11:45:29;3.17;;;1.10;;
71490;SDS011;59307;50.060;9.150;2022-07-10T11:47:56;3.50;;;1.50;;
71490;SDS011;59307;50.060;9.150;2022-07-10T11:50:21;4.50;;;1.15;;
71490;SDS011;59307;50.060;9.150;2022-07-10T11:52:47;3.50;;;1.30;;
71490;SDS011;59307;50.060;9.150;2022-07-10T11:55:13;4.63;;;1.30;;
71490;SDS011;59307;50.060;9.150;2022-07-10T11:57:38;3.47;;;1.10;;
71490;SDS011;59307;50.060;9.150;2022-07-10T12:00:06;4.30;;;1.03;;
71490;SDS011;59307;50.060;9.150;2022-07-10T12:02:32;4.82;;;1.20;;
71490;SDS011;59307;50.060;9.150;2022-07-10T12:04:57;4.37;;;1.23;;
71490;SDS011;59307;50.060;9.150;2022-07-10T12:07:23;7.27;;;1.20;;
71490;SDS011;59307;50.060;9.150;2022-07-10T12:09:53;5.40;;;1.10;;
71490;SDS011;59307;50.060;9.150;2022-07-10T12:12:22;4.60;;;1.30;;
71490;SDS011;59307;50.060;9.150;2022-07-10T12:14:47;6.68;;;1.20;;
71490;SDS011;59307;50.060;9.150;2022-07-10T12:17:12;4.33;;;1.40;;
71490;SDS011;59307;50.060;9.150;2022-07-10T12:19:38;3.70;;;1.10;;
71490;SDS011;59307;50.060;9.150;2022-07-10T12:22:06;5.03;;;1.43;;
71490;SDS011;59307;50.060;9.150;2022-07-10T12:24:32;3.97;;;1.30;;
71490;SDS011;59307;50.060;9.150;2022-07-10T12:26:57;4.05;;;1.50;;
71490;SDS011;59307;50.060;9.150;2022-07-10T12:31:49;7.57;;;1.30;;
71490;SDS011;59307;50.060;9.150;2022-07-10T12:34:14;3.47;;;1.20;;
71490;SDS011;59307;50.060;9.150;2022-07-10T12:37:06;5.70;;;1.33;;
71490;SDS011;59307;50.060;9.150;2022-07-10T12:39:25;5.25;;;1.25;;
71490;SDS011;59307;50.060;9.150;2022-07-10T12:44:35;4.10;;;1.35;;
71490;SDS011;59307;50.060;9.150;2022-07-10T12:47:04;3.53;;;1.30;;
71490;SDS011;59307;50.060;9.150;2022-07-10T12:49:31;5.70;;;1.30;;
71490;SDS011;59307;50.060;9.150;2022-07-10T12:52:18;3.37;;;1.30;;
71490;SDS011;59307;50.060;9.150;2022-07-10T12:54:43;3.45;;;1.23;;
71490;SDS011;59307;50.060;9.150;2022-07-10T12:57:09;8.27;;;1.37;;
71490;SDS011;59307;50.060;9.150;2022-07-10T12:59:34;4.17;;;1.30;;
71490;SDS011;59307;50.060;9.150;2022-07-10T13:02:13;2.97;;;1.23;;
71490;SDS011;59307;50.060;9.150;2022-07-10T13:04:38;4.03;;;1.10;;
71490;SDS011;59307;50.060;9.150;2022-07-10T13:07:12;5.23;;;2.10;;
71490;SDS011;59307;50.060;9.150;2022-07-10T13:09:39;3.95;;;1.67;;
71490;SDS011;59307;50.060;9.150;2022-07-10T13:12:04;5.40;;;2.07;;
71490;SDS011;59307;50.060;9.150;2022-07-10T13:14:29;4.07;;;1.70;;
71490;SDS011;59307;50.060;9.150;2022-07-10T13:16:55;6.03;;;1.80;;
71490;SDS011;59307;50.060;9.150;2022-07-10T13:19:20;3.87;;;1.70;;
71490;SDS011;59307;50.060;9.150;2022-07-10T13:21:45;6.37;;;1.30;;
71490;SDS011;59307;50.060;9.150;2022-07-10T13:24:10;4.90;;;1.20;;
71490;SDS011;59307;50.060;9.150;2022-07-10T13:26:36;3.07;;;1.20;;
71490;SDS011;59307;50.060;9.150;2022-07-10T13:29:01;4.30;;;1.53;;
71490;SDS011;59307;50.060;9.150;2022-07-10T13:31:26;4.33;;;1.37;;
71490;SDS011;59307;50.060;9.150;2022-07-10T13:33:51;5.10;;;1.30;;
71490;SDS011;59307;50.060;9.150;2022-07-10T13:36:16;5.70;;;1.40;;
71490;SDS011;59307;50.060;9.150;2022-07-10T13:38:42;4.37;;;1.13;;
71490;SDS011;59307;50.060;9.150;2022-07-10T13:41:07;4.33;;;1.37;;
71490;SDS011;59307;50.060;9.150;2022-07-10T13:43:32;2.53;;;0.90;;
71490;SDS011;59307;50.060;9.150;2022-07-10T13:45:58;6.25;;;1.50;;
71490;SDS011;59307;50.060;9.150;2022-07-10T13:48:24;4.67;;;1.40;;
71490;SDS011;59307;50.060;9.150;2022-07-10T13:50:49;5.50;;;1.35;;
71490;SDS011;59307;50.060;9.150;2022-07-10T13:53:15;4.03;;;1.40;;
71490;SDS011;59307;50.060;9.150;2022-07-10T13:55:41;6.63;;;1.67;;
71490;SDS011;59307;50.060;9.150;2022-07-10T13:58:07;4.17;;;1.60;;
71490;SDS011;59307;50.060;9.150;2022-07-10T14:00:32;5.23;;;1.40;;
71490;SDS011;59307;50.060;9.150;2022-07-10T14:02:57;5.07;;;1.40;;
71490;SDS011;59307;50.060;9.150;2022-07-10T14:05:25;9.77;;;1.40;;
71490;SDS011;59307;50.060;9.150;2022-07-10T14:07:50;4.33;;;1.20;;
71490;SDS011;59307;50.060;9.150;2022-07-10T14:10:15;2.77;;;1.30;;
71490;SDS011;59307;50.060;9.150;2022-07-10T14:12:41;4.33;;;1.20;;
71490;SDS011;59307;50.060;9.150;2022-07-10T14:15:06;4.30;;;1.35;;
71490;SDS011;59307;50.060;9.150;2022-07-10T14:17:32;4.77;;;1.20;;
71490;SDS011;59307;50.060;9.150;2022-07-10T14:19:57;5.10;;;1.50;;
71490;SDS011;59307;50.060;9.150;2022-07-10T14:22:22;6.03;;;1.20;;
71490;SDS011;59307;50.060;9.150;2022-07-10T14:24:48;5.72;;;1.40;;
71490;SDS011;59307;50.060;9.150;2022-07-10T14:27:14;4.73;;;1.43;;
71490;SDS011;59307;50.060;9.150;2022-07-10T14:29:39;4.87;;;1.30;;
71490;SDS011;59307;50.060;9.150;2022-07-10T14:32:04;5.67;;;1.17;;
71490;SDS011;59307;50.060;9.150;2022-07-10T14:34:30;4.43;;;1.30;;
71490;SDS011;59307;50.060;9.150;2022-07-10T14:36:55;7.17;;;1.53;;
71490;SDS011;59307;50.060;9.150;2022-07-10T14:39:20;1.93;;;0.87;;
71490;SDS011;59307;50.060;9.150;2022-07-10T14:41:45;4.37;;;1.47;;
71490;SDS011;59307;50.060;9.150;2022-07-10T14:44:11;3.50;;;1.40;;
71490;SDS011;59307;50.060;9.150;2022-07-10T14:46:36;3.10;;;1.20;;
71490;SDS011;59307;50.060;9.150;2022-07-10T14:49:01;4.47;;;1.20;;
71490;SDS011;59307;50.060;9.150;2022-07-10T14:51:26;2.77;;;1.00;;
71490;SDS011;59307;50.060;9.150;2022-07-10T14:53:52;3.70;;;1.10;;
71490;SDS011;59307;50.060;9.150;2022-07-10T14:56:17;4.60;;;1.40;;
71490;SDS011;59307;50.060;9.150;2022-07-10T14:58:44;4.88;;;1.20;;
71490;SDS011;59307;50.060;9.150;2022-07-10T15:01:09;2.40;;;1.10;;
71490;SDS011;59307;50.060;9.150;2022-07-10T15:03:34;4.67;;;1.33;;
71490;SDS011;59307;50.060;9.150;2022-07-10T15:06:00;1.93;;;1.10;;
71490;SDS011;59307;50.060;9.150;2022-07-10T15:08:25;3.93;;;1.13;;
71490;SDS011;59307;50.060;9.150;2022-07-10T15:10:50;5.43;;;1.17;;
71490;SDS011;59307;50.060;9.150;2022-07-10T15:13:15;3.50;;;1.13;;
71490;SDS011;59307;50.060;9.150;2022-07-10T15:15:41;5.87;;;1.03;;